sensor_id;sensor_type;location;lat;lon;timestamp;temperature;humidity
45104;DHT22;30865;51.288;4.572;2023-03-23T00:01:13;13.20;86.70
45104;DHT22;30865;51.288;4.572;2023-03-23T00:03:40;13.20;85.50
45104;DHT22;30865;51.288;4.572;2023-03-23T00:06:06;13.10;85.30
45104;DHT22;30865;51.288;4.572;2023-03-23T00:08:34;13.20;85.30
45104;DHT22;30865;51.288;4.572;2023-03-23T00:11:03;13.10;84.90
45104;DHT22;30865;51.288;4.572;2023-03-23T00:13:29;13.20;85.90
45104;DHT22;30865;51.288;4.572;2023-03-23T00:15:55;13.10;86.50
45104;DHT22;30865;51.288;4.572;2023-03-23T00:18:25;13.10;87.00
45104;DHT22;30865;51.288;4.572;2023-03-23T00:20:53;13.00;86.30
45104;DHT22;30865;51.288;4.572;2023-03-23T00:23:21;13.00;85.50
45104;DHT22;30865;51.288;4.572;2023-03-23T00:25:50;13.10;86.20
45104;DHT22;30865;51.288;4.572;2023-03-23T00:28:16;13.10;86.30
45104;DHT22;30865;51.288;4.572;2023-03-23T00:30:42;13.10;86.50
45104;DHT22;30865;51.288;4.572;2023-03-23T00:33:10;13.10;86.60
45104;DHT22;30865;51.288;4.572;2023-03-23T00:35:39;13.10;86.30
45104;DHT22;30865;51.288;4.572;2023-03-23T00:38:05;13.10;85.80
45104;DHT22;30865;51.288;4.572;2023-03-23T00:40:30;13.10;85.80
45104;DHT22;30865;51.288;4.572;2023-03-23T00:42:56;13.00;84.60
45104;DHT22;30865;51.288;4.572;2023-03-23T00:45:22;13.10;84.60
45104;DHT22;30865;51.288;4.572;2023-03-23T00:47:49;13.10;84.50
45104;DHT22;30865;51.288;4.572;2023-03-23T00:50:16;13.00;85.10
45104;DHT22;30865;51.288;4.572;2023-03-23T00:52:43;13.10;84.10
45104;DHT22;30865;51.288;4.572;2023-03-23T00:55:08;13.20;83.90
45104;DHT22;30865;51.288;4.572;2023-03-23T00:57:34;13.10;83.70
45104;DHT22;30865;51.288;4.572;2023-03-23T01:00:00;13.10;84.80
45104;DHT22;30865;51.288;4.572;2023-03-23T01:02:26;13.10;84.50
45104;DHT22;30865;51.288;4.572;2023-03-23T01:04:51;13.10;84.30
45104;DHT22;30865;51.288;4.572;2023-03-23T01:07:21;13.10;84.30
45104;DHT22;30865;51.288;4.572;2023-03-23T01:09:48;13.10;83.90
45104;DHT22;30865;51.288;4.572;2023-03-23T01:12:14;13.20;83.70
45104;DHT22;30865;51.288;4.572;2023-03-23T01:14:43;13.20;82.90
45104;DHT22;30865;51.288;4.572;2023-03-23T01:17:09;13.30;83.90
45104;DHT22;30865;51.288;4.572;2023-03-23T01:19:35;13.20;84.60
45104;DHT22;30865;51.288;4.572;2023-03-23T01:22:02;13.20;84.70
45104;DHT22;30865;51.288;4.572;2023-03-23T01:24:28;13.10;84.50
45104;DHT22;30865;51.288;4.572;2023-03-23T01:26:53;13.10;83.90
45104;DHT22;30865;51.288;4.572;2023-03-23T01:29:19;13.10;84.00
45104;DHT22;30865;51.288;4.572;2023-03-23T01:31:45;13.10;83.80
45104;DHT22;30865;51.288;4.572;2023-03-23T01:34:14;13.10;83.90
45104;DHT22;30865;51.288;4.572;2023-03-23T01:36:39;13.10;84.60
45104;DHT22;30865;51.288;4.572;2023-03-23T01:39:06;13.00;84.40
45104;DHT22;30865;51.288;4.572;2023-03-23T01:41:32;13.00;85.10
45104;DHT22;30865;51.288;4.572;2023-03-23T01:46:51;13.00;85.60
45104;DHT22;30865;51.288;4.572;2023-03-23T01:49:22;13.00;85.80
45104;DHT22;30865;51.288;4.572;2023-03-23T01:51:52;13.00;85.60
45104;DHT22;30865;51.288;4.572;2023-03-23T01:54:25;12.90;86.10
45104;DHT22;30865;51.288;4.572;2023-03-23T01:56:54;12.90;85.10
45104;DHT22;30865;51.288;4.572;2023-03-23T01:59:21;12.90;84.70
45104;DHT22;30865;51.288;4.572;2023-03-23T02:01:48;12.90;83.90
45104;DHT22;30865;51.288;4.572;2023-03-23T02:04:16;12.90;82.80
45104;DHT22;30865;51.288;4.572;2023-03-23T02:06:43;13.00;82.20
45104;DHT22;30865;51.288;4.572;2023-03-23T02:09:10;13.00;82.10
45104;DHT22;30865;51.288;4.572;2023-03-23T02:11:36;13.00;82.10
45104;DHT22;30865;51.288;4.572;2023-03-23T02:14:02;13.00;82.00
45104;DHT22;30865;51.288;4.572;2023-03-23T02:19:34;13.00;82.40
45104;DHT22;30865;51.288;4.572;2023-03-23T02:22:44;13.00;82.40
45104;DHT22;30865;51.288;4.572;2023-03-23T02:28:31;12.90;82.90
45104;DHT22;30865;51.288;4.572;2023-03-23T02:34:17;12.90;83.60
45104;DHT22;30865;51.288;4.572;2023-03-23T02:36:52;12.90;84.30
45104;DHT22;30865;51.288;4.572;2023-03-23T02:39:25;12.90;84.70
45104;DHT22;30865;51.288;4.572;2023-03-23T02:41:58;12.80;85.00
45104;DHT22;30865;51.288;4.572;2023-03-23T02:44:29;12.80;85.20
45104;DHT22;30865;51.288;4.572;2023-03-23T02:46:57;12.80;85.70
45104;DHT22;30865;51.288;4.572;2023-03-23T02:49:25;12.70;85.80
45104;DHT22;30865;51.288;4.572;2023-03-23T02:51:53;12.70;86.30
45104;DHT22;30865;51.288;4.572;2023-03-23T02:54:20;12.60;86.80
45104;DHT22;30865;51.288;4.572;2023-03-23T02:56:52;12.60;87.00
45104;DHT22;30865;51.288;4.572;2023-03-23T02:59:18;12.60;87.00
45104;DHT22;30865;51.288;4.572;2023-03-23T03:04:15;12.70;86.60
45104;DHT22;30865;51.288;4.572;2023-03-23T03:07:07;12.70;86.00
45104;DHT22;30865;51.288;4.572;2023-03-23T03:09:56;12.70;85.60
45104;DHT22;30865;51.288;4.572;2023-03-23T03:12:41;12.70;85.50
45104;DHT22;30865;51.288;4.572;2023-03-23T03:15:29;12.80;85.60
45104;DHT22;30865;51.288;4.572;2023-03-23T03:18:16;12.80;85.70
45104;DHT22;30865;51.288;4.572;2023-03-23T03:20:46;12.80;85.20
45104;DHT22;30865;51.288;4.572;2023-03-23T03:23:14;12.90;84.90
45104;DHT22;30865;51.288;4.572;2023-03-23T03:25:43;12.90;85.70
45104;DHT22;30865;51.288;4.572;2023-03-23T03:28:14;12.90;85.60
45104;DHT22;30865;51.288;4.572;2023-03-23T03:30:42;12.90;85.10
45104;DHT22;30865;51.288;4.572;2023-03-23T03:33:09;12.90;84.30
45104;DHT22;30865;51.288;4.572;2023-03-23T03:35:37;12.90;84.30
45104;DHT22;30865;51.288;4.572;2023-03-23T03:38:09;12.90;84.30
45104;DHT22;30865;51.288;4.572;2023-03-23T03:40:38;12.90;84.30
45104;DHT22;30865;51.288;4.572;2023-03-23T03:43:04;12.90;83.60
45104;DHT22;30865;51.288;4.572;2023-03-23T03:45:30;13.00;83.40
45104;DHT22;30865;51.288;4.572;2023-03-23T03:47:55;13.00;83.20
45104;DHT22;30865;51.288;4.572;2023-03-23T03:50:21;13.00;83.40
45104;DHT22;30865;51.288;4.572;2023-03-23T03:52:47;12.90;83.90
45104;DHT22;30865;51.288;4.572;2023-03-23T03:55:12;12.90;84.20
45104;DHT22;30865;51.288;4.572;2023-03-23T03:57:38;12.80;84.50
45104;DHT22;30865;51.288;4.572;2023-03-23T04:00:05;12.80;84.90
45104;DHT22;30865;51.288;4.572;2023-03-23T04:02:48;12.80;84.20
45104;DHT22;30865;51.288;4.572;2023-03-23T04:05:16;12.80;84.00
45104;DHT22;30865;51.288;4.572;2023-03-23T04:07:42;12.90;85.10
45104;DHT22;30865;51.288;4.572;2023-03-23T04:10:11;12.90;85.50
45104;DHT22;30865;51.288;4.572;2023-03-23T04:12:38;12.90;85.60
45104;DHT22;30865;51.288;4.572;2023-03-23T04:15:05;12.90;85.90
45104;DHT22;30865;51.288;4.572;2023-03-23T04:17:31;12.80;85.70
45104;DHT22;30865;51.288;4.572;2023-03-23T04:19:56;12.90;85.70
45104;DHT22;30865;51.288;4.572;2023-03-23T04:22:23;12.90;85.30
45104;DHT22;30865;51.288;4.572;2023-03-23T04:24:56;13.00;85.60
45104;DHT22;30865;51.288;4.572;2023-03-23T04:27:24;13.00;86.10
45104;DHT22;30865;51.288;4.572;2023-03-23T04:29:50;13.00;86.70
45104;DHT22;30865;51.288;4.572;2023-03-23T04:32:15;12.90;86.70
45104;DHT22;30865;51.288;4.572;2023-03-23T04:34:43;12.90;86.50
45104;DHT22;30865;51.288;4.572;2023-03-23T04:37:09;12.90;86.20
45104;DHT22;30865;51.288;4.572;2023-03-23T04:39:35;12.90;86.50
45104;DHT22;30865;51.288;4.572;2023-03-23T04:42:00;12.90;86.60
45104;DHT22;30865;51.288;4.572;2023-03-23T04:44:27;12.90;86.60
45104;DHT22;30865;51.288;4.572;2023-03-23T04:46:52;12.90;86.70
45104;DHT22;30865;51.288;4.572;2023-03-23T04:49:19;12.90;86.80
45104;DHT22;30865;51.288;4.572;2023-03-23T04:51:47;12.90;87.00
45104;DHT22;30865;51.288;4.572;2023-03-23T04:54:13;12.80;87.50
45104;DHT22;30865;51.288;4.572;2023-03-23T04:56:39;12.80;87.60
45104;DHT22;30865;51.288;4.572;2023-03-23T04:59:06;12.90;87.60
45104;DHT22;30865;51.288;4.572;2023-03-23T05:01:32;12.90;87.40
45104;DHT22;30865;51.288;4.572;2023-03-23T05:03:59;12.90;87.70
45104;DHT22;30865;51.288;4.572;2023-03-23T05:06:25;12.80;87.90
45104;DHT22;30865;51.288;4.572;2023-03-23T05:08:51;12.90;88.00
45104;DHT22;30865;51.288;4.572;2023-03-23T05:11:16;12.80;89.00
45104;DHT22;30865;51.288;4.572;2023-03-23T05:13:42;12.80;89.20
45104;DHT22;30865;51.288;4.572;2023-03-23T05:16:09;12.80;88.70
45104;DHT22;30865;51.288;4.572;2023-03-23T05:18:35;12.90;88.00
45104;DHT22;30865;51.288;4.572;2023-03-23T05:21:04;12.90;88.10
45104;DHT22;30865;51.288;4.572;2023-03-23T05:23:29;12.90;88.50
45104;DHT22;30865;51.288;4.572;2023-03-23T05:25:57;12.90;89.10
45104;DHT22;30865;51.288;4.572;2023-03-23T05:28:26;12.80;89.30
45104;DHT22;30865;51.288;4.572;2023-03-23T05:30:52;12.80;89.00
45104;DHT22;30865;51.288;4.572;2023-03-23T05:33:19;12.80;88.60
45104;DHT22;30865;51.288;4.572;2023-03-23T05:35:46;12.90;88.60
45104;DHT22;30865;51.288;4.572;2023-03-23T05:38:13;12.90;88.50
45104;DHT22;30865;51.288;4.572;2023-03-23T05:40:40;12.90;88.50
45104;DHT22;30865;51.288;4.572;2023-03-23T05:43:07;13.00;88.90
45104;DHT22;30865;51.288;4.572;2023-03-23T05:45:33;13.00;88.10
45104;DHT22;30865;51.288;4.572;2023-03-23T05:47:59;13.00;88.20
45104;DHT22;30865;51.288;4.572;2023-03-23T05:50:25;13.00;88.40
45104;DHT22;30865;51.288;4.572;2023-03-23T05:52:54;13.00;88.60
45104;DHT22;30865;51.288;4.572;2023-03-23T05:55:20;13.10;88.50
45104;DHT22;30865;51.288;4.572;2023-03-23T05:57:46;13.10;87.90
45104;DHT22;30865;51.288;4.572;2023-03-23T06:00:12;13.10;88.20
45104;DHT22;30865;51.288;4.572;2023-03-23T06:02:44;13.20;88.00
45104;DHT22;30865;51.288;4.572;2023-03-23T06:05:11;13.30;87.90
45104;DHT22;30865;51.288;4.572;2023-03-23T06:07:37;13.30;87.60
45104;DHT22;30865;51.288;4.572;2023-03-23T06:10:04;13.30;87.70
45104;DHT22;30865;51.288;4.572;2023-03-23T06:12:30;13.30;87.60
45104;DHT22;30865;51.288;4.572;2023-03-23T06:14:56;13.30;88.10
45104;DHT22;30865;51.288;4.572;2023-03-23T06:17:22;13.30;88.20
45104;DHT22;30865;51.288;4.572;2023-03-23T06:19:48;13.40;88.20
45104;DHT22;30865;51.288;4.572;2023-03-23T06:22:16;13.40;88.20
45104;DHT22;30865;51.288;4.572;2023-03-23T06:24:42;13.40;88.20
45104;DHT22;30865;51.288;4.572;2023-03-23T06:27:07;13.40;88.20
45104;DHT22;30865;51.288;4.572;2023-03-23T06:29:34;13.40;88.20
45104;DHT22;30865;51.288;4.572;2023-03-23T06:32:01;13.40;88.70
45104;DHT22;30865;51.288;4.572;2023-03-23T06:34:28;13.50;88.40
45104;DHT22;30865;51.288;4.572;2023-03-23T06:36:53;13.50;88.10
45104;DHT22;30865;51.288;4.572;2023-03-23T06:39:19;13.60;87.40
45104;DHT22;30865;51.288;4.572;2023-03-23T06:41:44;13.60;87.40
45104;DHT22;30865;51.288;4.572;2023-03-23T06:44:10;13.60;88.00
45104;DHT22;30865;51.288;4.572;2023-03-23T06:46:39;13.60;87.50
45104;DHT22;30865;51.288;4.572;2023-03-23T06:49:05;13.60;87.20
45104;DHT22;30865;51.288;4.572;2023-03-23T06:51:31;13.70;86.90
45104;DHT22;30865;51.288;4.572;2023-03-23T06:53:56;13.80;85.80
45104;DHT22;30865;51.288;4.572;2023-03-23T06:56:23;13.90;85.70
45104;DHT22;30865;51.288;4.572;2023-03-23T06:58:49;14.00;85.60
45104;DHT22;30865;51.288;4.572;2023-03-23T07:01:14;14.10;85.20
45104;DHT22;30865;51.288;4.572;2023-03-23T07:03:41;14.30;84.90
45104;DHT22;30865;51.288;4.572;2023-03-23T07:06:08;14.50;84.50
45104;DHT22;30865;51.288;4.572;2023-03-23T07:08:37;14.60;84.00
45104;DHT22;30865;51.288;4.572;2023-03-23T07:11:02;14.60;84.40
45104;DHT22;30865;51.288;4.572;2023-03-23T07:13:28;14.70;84.50
45104;DHT22;30865;51.288;4.572;2023-03-23T07:15:54;14.70;84.00
45104;DHT22;30865;51.288;4.572;2023-03-23T07:18:20;14.70;84.20
45104;DHT22;30865;51.288;4.572;2023-03-23T07:20:52;14.70;83.40
45104;DHT22;30865;51.288;4.572;2023-03-23T07:23:18;14.80;82.50
45104;DHT22;30865;51.288;4.572;2023-03-23T07:25:44;14.90;80.60
45104;DHT22;30865;51.288;4.572;2023-03-23T07:28:11;14.90;81.20
45104;DHT22;30865;51.288;4.572;2023-03-23T07:30:38;15.00;80.40
45104;DHT22;30865;51.288;4.572;2023-03-23T07:33:06;15.00;79.60
45104;DHT22;30865;51.288;4.572;2023-03-23T07:35:32;15.00;79.00
45104;DHT22;30865;51.288;4.572;2023-03-23T07:38:00;15.00;79.60
45104;DHT22;30865;51.288;4.572;2023-03-23T07:40:26;15.10;78.60
45104;DHT22;30865;51.288;4.572;2023-03-23T07:42:53;15.10;78.60
45104;DHT22;30865;51.288;4.572;2023-03-23T07:45:20;15.20;76.10
45104;DHT22;30865;51.288;4.572;2023-03-23T07:47:46;15.30;75.20
45104;DHT22;30865;51.288;4.572;2023-03-23T07:50:12;15.40;74.80
45104;DHT22;30865;51.288;4.572;2023-03-23T07:52:38;15.50;73.80
45104;DHT22;30865;51.288;4.572;2023-03-23T07:55:06;15.50;73.30
45104;DHT22;30865;51.288;4.572;2023-03-23T07:57:32;15.70;72.50
45104;DHT22;30865;51.288;4.572;2023-03-23T07:59:59;15.90;71.00
45104;DHT22;30865;51.288;4.572;2023-03-23T08:02:25;16.10;70.10
45104;DHT22;30865;51.288;4.572;2023-03-23T08:04:51;16.30;69.00
45104;DHT22;30865;51.288;4.572;2023-03-23T08:07:19;16.40;68.60
45104;DHT22;30865;51.288;4.572;2023-03-23T08:09:45;16.60;68.70
45104;DHT22;30865;51.288;4.572;2023-03-23T08:12:12;16.60;67.50
45104;DHT22;30865;51.288;4.572;2023-03-23T08:14:38;16.70;67.10
45104;DHT22;30865;51.288;4.572;2023-03-23T08:17:05;16.70;67.60
45104;DHT22;30865;51.288;4.572;2023-03-23T08:19:30;16.60;67.90
45104;DHT22;30865;51.288;4.572;2023-03-23T08:21:55;16.70;67.70
45104;DHT22;30865;51.288;4.572;2023-03-23T08:24:23;16.70;67.50
45104;DHT22;30865;51.288;4.572;2023-03-23T08:26:51;16.70;67.80
45104;DHT22;30865;51.288;4.572;2023-03-23T08:29:17;16.70;68.30
45104;DHT22;30865;51.288;4.572;2023-03-23T08:31:43;16.80;68.00
45104;DHT22;30865;51.288;4.572;2023-03-23T08:34:10;16.90;67.50
45104;DHT22;30865;51.288;4.572;2023-03-23T08:36:35;17.00;67.80
45104;DHT22;30865;51.288;4.572;2023-03-23T08:39:03;17.10;67.50
45104;DHT22;30865;51.288;4.572;2023-03-23T08:41:30;17.20;67.90
45104;DHT22;30865;51.288;4.572;2023-03-23T08:43:56;17.20;67.60
45104;DHT22;30865;51.288;4.572;2023-03-23T08:46:22;17.30;67.30
45104;DHT22;30865;51.288;4.572;2023-03-23T08:48:48;16.90;68.50
45104;DHT22;30865;51.288;4.572;2023-03-23T08:51:13;16.70;69.80
45104;DHT22;30865;51.288;4.572;2023-03-23T08:53:39;16.70;70.40
45104;DHT22;30865;51.288;4.572;2023-03-23T08:56:07;16.70;70.60
45104;DHT22;30865;51.288;4.572;2023-03-23T08:58:34;16.80;70.10
45104;DHT22;30865;51.288;4.572;2023-03-23T09:01:00;16.90;70.30
45104;DHT22;30865;51.288;4.572;2023-03-23T09:03:26;17.00;70.30
45104;DHT22;30865;51.288;4.572;2023-03-23T09:05:52;17.10;70.00
45104;DHT22;30865;51.288;4.572;2023-03-23T09:08:18;17.20;69.60
45104;DHT22;30865;51.288;4.572;2023-03-23T09:10:44;17.40;70.00
45104;DHT22;30865;51.288;4.572;2023-03-23T09:13:10;17.50;68.90
45104;DHT22;30865;51.288;4.572;2023-03-23T09:15:35;17.70;68.20
45104;DHT22;30865;51.288;4.572;2023-03-23T09:18:01;17.70;68.00
45104;DHT22;30865;51.288;4.572;2023-03-23T09:20:28;17.60;68.00
45104;DHT22;30865;51.288;4.572;2023-03-23T09:22:55;17.40;69.10
45104;DHT22;30865;51.288;4.572;2023-03-23T09:25:24;17.40;69.00
45104;DHT22;30865;51.288;4.572;2023-03-23T09:27:56;17.50;68.70
45104;DHT22;30865;51.288;4.572;2023-03-23T09:30:23;17.50;69.00
45104;DHT22;30865;51.288;4.572;2023-03-23T09:32:49;17.70;67.80
45104;DHT22;30865;51.288;4.572;2023-03-23T09:35:15;18.00;67.60
45104;DHT22;30865;51.288;4.572;2023-03-23T09:37:43;18.00;67.00
45104;DHT22;30865;51.288;4.572;2023-03-23T09:40:15;17.70;67.50
45104;DHT22;30865;51.288;4.572;2023-03-23T09:48:26;17.40;68.30
45104;DHT22;30865;51.288;4.572;2023-03-23T09:51:03;17.30;68.60
45104;DHT22;30865;51.288;4.572;2023-03-23T09:53:41;17.30;68.70
45104;DHT22;30865;51.288;4.572;2023-03-23T09:56:13;17.50;68.60
45104;DHT22;30865;51.288;4.572;2023-03-23T09:59:11;17.50;67.80
45104;DHT22;30865;51.288;4.572;2023-03-23T10:01:36;17.40;68.60
45104;DHT22;30865;51.288;4.572;2023-03-23T10:04:11;17.20;69.20
45104;DHT22;30865;51.288;4.572;2023-03-23T10:06:37;17.30;69.30
45104;DHT22;30865;51.288;4.572;2023-03-23T10:09:04;17.40;67.90
45104;DHT22;30865;51.288;4.572;2023-03-23T10:12:04;17.50;68.00
45104;DHT22;30865;51.288;4.572;2023-03-23T10:17:35;17.10;70.30
45104;DHT22;30865;51.288;4.572;2023-03-23T10:22:55;17.40;70.50
45104;DHT22;30865;51.288;4.572;2023-03-23T10:25:28;17.80;68.30
45104;DHT22;30865;51.288;4.572;2023-03-23T10:28:06;17.70;68.40
45104;DHT22;30865;51.288;4.572;2023-03-23T10:30:40;18.00;67.90
45104;DHT22;30865;51.288;4.572;2023-03-23T10:35:55;17.80;67.90
45104;DHT22;30865;51.288;4.572;2023-03-23T10:38:39;17.90;67.70
45104;DHT22;30865;51.288;4.572;2023-03-23T10:41:12;17.60;68.80
45104;DHT22;30865;51.288;4.572;2023-03-23T10:43:38;17.70;68.80
45104;DHT22;30865;51.288;4.572;2023-03-23T10:46:54;17.80;68.90
45104;DHT22;30865;51.288;4.572;2023-03-23T10:49:18;17.90;68.20
45104;DHT22;30865;51.288;4.572;2023-03-23T10:51:51;17.90;68.10
45104;DHT22;30865;51.288;4.572;2023-03-23T10:54:31;18.10;67.90
45104;DHT22;30865;51.288;4.572;2023-03-23T10:56:57;18.00;68.10
45104;DHT22;30865;51.288;4.572;2023-03-23T10:59:30;18.20;67.20
45104;DHT22;30865;51.288;4.572;2023-03-23T11:02:00;18.10;67.90
45104;DHT22;30865;51.288;4.572;2023-03-23T11:04:28;18.20;67.80
45104;DHT22;30865;51.288;4.572;2023-03-23T11:06:59;18.20;67.60
45104;DHT22;30865;51.288;4.572;2023-03-23T11:09:36;18.30;66.70
45104;DHT22;30865;51.288;4.572;2023-03-23T11:12:02;18.10;66.20
45104;DHT22;30865;51.288;4.572;2023-03-23T11:14:35;18.10;66.80
45104;DHT22;30865;51.288;4.572;2023-03-23T11:17:05;18.20;67.40
45104;DHT22;30865;51.288;4.572;2023-03-23T11:19:34;18.10;67.70
45104;DHT22;30865;51.288;4.572;2023-03-23T11:24:40;18.10;68.30
45104;DHT22;30865;51.288;4.572;2023-03-23T11:27:09;18.10;68.10
45104;DHT22;30865;51.288;4.572;2023-03-23T11:29:42;18.20;68.20
45104;DHT22;30865;51.288;4.572;2023-03-23T11:32:11;18.00;69.00
45104;DHT22;30865;51.288;4.572;2023-03-23T11:34:42;18.20;70.20
45104;DHT22;30865;51.288;4.572;2023-03-23T11:40:10;18.30;68.60
45104;DHT22;30865;51.288;4.572;2023-03-23T11:42:49;18.40;69.50
45104;DHT22;30865;51.288;4.572;2023-03-23T11:47:59;18.00;73.80
45104;DHT22;30865;51.288;4.572;2023-03-23T11:56:56;18.20;70.00
45104;DHT22;30865;51.288;4.572;2023-03-23T11:58:58;18.40;69.50
45104;DHT22;30865;51.288;4.572;2023-03-23T12:04:19;18.20;69.60
45104;DHT22;30865;51.288;4.572;2023-03-23T12:07:06;18.50;69.20
45104;DHT22;30865;51.288;4.572;2023-03-23T12:09:43;18.60;68.10
45104;DHT22;30865;51.288;4.572;2023-03-23T12:12:31;18.80;67.50
45104;DHT22;30865;51.288;4.572;2023-03-23T12:15:16;18.70;68.20
45104;DHT22;30865;51.288;4.572;2023-03-23T12:17:50;18.50;69.30
45104;DHT22;30865;51.288;4.572;2023-03-23T12:23:41;18.30;69.20
45104;DHT22;30865;51.288;4.572;2023-03-23T12:26:22;18.50;68.90
45104;DHT22;30865;51.288;4.572;2023-03-23T12:29:04;18.60;67.60
45104;DHT22;30865;51.288;4.572;2023-03-23T12:37:06;18.70;64.70
45104;DHT22;30865;51.288;4.572;2023-03-23T12:46:03;18.70;63.00
45104;DHT22;30865;51.288;4.572;2023-03-23T12:51:54;19.10;62.00
45104;DHT22;30865;51.288;4.572;2023-03-23T12:55:01;18.90;61.50
45104;DHT22;30865;51.288;4.572;2023-03-23T12:57:40;19.20;61.40
45104;DHT22;30865;51.288;4.572;2023-03-23T13:00:28;19.30;61.00
45104;DHT22;30865;51.288;4.572;2023-03-23T13:03:14;19.30;61.20
45104;DHT22;30865;51.288;4.572;2023-03-23T13:05:51;19.20;60.70
45104;DHT22;30865;51.288;4.572;2023-03-23T13:08:26;19.30;61.10
45104;DHT22;30865;51.288;4.572;2023-03-23T13:10:57;19.10;61.70
45104;DHT22;30865;51.288;4.572;2023-03-23T13:13:26;19.20;61.60
45104;DHT22;30865;51.288;4.572;2023-03-23T13:16:03;19.30;60.80
45104;DHT22;30865;51.288;4.572;2023-03-23T13:21:30;19.20;61.70
45104;DHT22;30865;51.288;4.572;2023-03-23T13:24:05;19.10;61.70
45104;DHT22;30865;51.288;4.572;2023-03-23T13:26:38;19.10;61.00
45104;DHT22;30865;51.288;4.572;2023-03-23T13:29:13;19.60;60.40
45104;DHT22;30865;51.288;4.572;2023-03-23T13:31:40;19.30;60.70
45104;DHT22;30865;51.288;4.572;2023-03-23T13:34:23;19.20;60.50
45104;DHT22;30865;51.288;4.572;2023-03-23T13:37:02;19.40;60.00
45104;DHT22;30865;51.288;4.572;2023-03-23T13:39:36;19.30;60.10
45104;DHT22;30865;51.288;4.572;2023-03-23T13:44:55;19.30;60.60
45104;DHT22;30865;51.288;4.572;2023-03-23T13:47:27;19.20;60.20
45104;DHT22;30865;51.288;4.572;2023-03-23T13:58:09;19.10;60.70
45104;DHT22;30865;51.288;4.572;2023-03-23T14:00:47;19.10;60.20
45104;DHT22;30865;51.288;4.572;2023-03-23T14:05:47;19.20;59.90
45104;DHT22;30865;51.288;4.572;2023-03-23T14:08:22;19.10;60.20
45104;DHT22;30865;51.288;4.572;2023-03-23T14:10:53;19.00;60.00
45104;DHT22;30865;51.288;4.572;2023-03-23T14:13:23;19.10;59.80
45104;DHT22;30865;51.288;4.572;2023-03-23T14:16:15;19.10;59.50
45104;DHT22;30865;51.288;4.572;2023-03-23T14:18:53;19.00;60.00
45104;DHT22;30865;51.288;4.572;2023-03-23T14:26:36;19.00;60.20
45104;DHT22;30865;51.288;4.572;2023-03-23T14:29:03;18.90;59.80
45104;DHT22;30865;51.288;4.572;2023-03-23T14:31:29;19.00;59.50
45104;DHT22;30865;51.288;4.572;2023-03-23T14:33:56;19.00;59.80
45104;DHT22;30865;51.288;4.572;2023-03-23T14:36:24;19.00;58.80
45104;DHT22;30865;51.288;4.572;2023-03-23T14:39:21;19.00;58.40
45104;DHT22;30865;51.288;4.572;2023-03-23T14:41:47;18.80;57.60
45104;DHT22;30865;51.288;4.572;2023-03-23T14:44:35;18.80;57.90
45104;DHT22;30865;51.288;4.572;2023-03-23T14:47:04;18.70;57.70
45104;DHT22;30865;51.288;4.572;2023-03-23T14:49:38;18.60;57.90
45104;DHT22;30865;51.288;4.572;2023-03-23T14:54:35;18.70;57.90
45104;DHT22;30865;51.288;4.572;2023-03-23T14:57:12;18.70;57.80
45104;DHT22;30865;51.288;4.572;2023-03-23T14:59:47;18.70;57.90
45104;DHT22;30865;51.288;4.572;2023-03-23T15:05:00;18.60;58.00
45104;DHT22;30865;51.288;4.572;2023-03-23T15:07:32;18.60;58.20
45104;DHT22;30865;51.288;4.572;2023-03-23T15:09:59;18.60;58.30
45104;DHT22;30865;51.288;4.572;2023-03-23T15:12:27;18.60;58.20
45104;DHT22;30865;51.288;4.572;2023-03-23T15:14:56;18.60;58.20
45104;DHT22;30865;51.288;4.572;2023-03-23T15:17:30;18.70;58.00
45104;DHT22;30865;51.288;4.572;2023-03-23T15:19:56;18.70;56.70
45104;DHT22;30865;51.288;4.572;2023-03-23T15:22:25;18.60;56.70
45104;DHT22;30865;51.288;4.572;2023-03-23T15:24:53;18.70;56.40
45104;DHT22;30865;51.288;4.572;2023-03-23T15:27:38;18.60;56.60
45104;DHT22;30865;51.288;4.572;2023-03-23T15:30:31;18.70;56.70
45104;DHT22;30865;51.288;4.572;2023-03-23T15:33:04;18.70;56.20
45104;DHT22;30865;51.288;4.572;2023-03-23T15:35:36;18.60;55.90
45104;DHT22;30865;51.288;4.572;2023-03-23T15:38:05;18.60;56.00
45104;DHT22;30865;51.288;4.572;2023-03-23T15:40:36;18.50;56.10
45104;DHT22;30865;51.288;4.572;2023-03-23T15:43:16;18.40;56.30
45104;DHT22;30865;51.288;4.572;2023-03-23T15:45:56;18.30;56.60
45104;DHT22;30865;51.288;4.572;2023-03-23T15:48:25;18.30;57.00
45104;DHT22;30865;51.288;4.572;2023-03-23T15:50:51;18.30;57.00
45104;DHT22;30865;51.288;4.572;2023-03-23T15:53:33;18.30;56.90
45104;DHT22;30865;51.288;4.572;2023-03-23T15:56:04;18.30;57.20
45104;DHT22;30865;51.288;4.572;2023-03-23T15:58:31;18.30;57.50
45104;DHT22;30865;51.288;4.572;2023-03-23T16:00:57;18.20;57.50
45104;DHT22;30865;51.288;4.572;2023-03-23T16:03:37;18.20;58.00
45104;DHT22;30865;51.288;4.572;2023-03-23T16:06:04;18.20;57.80
45104;DHT22;30865;51.288;4.572;2023-03-23T16:08:29;18.10;58.00
45104;DHT22;30865;51.288;4.572;2023-03-23T16:10:55;18.10;57.90
45104;DHT22;30865;51.288;4.572;2023-03-23T16:13:20;18.00;57.90
45104;DHT22;30865;51.288;4.572;2023-03-23T16:15:47;18.00;58.20
45104;DHT22;30865;51.288;4.572;2023-03-23T16:18:19;17.90;58.30
45104;DHT22;30865;51.288;4.572;2023-03-23T16:20:46;17.90;58.60
45104;DHT22;30865;51.288;4.572;2023-03-23T16:23:12;17.80;58.30
45104;DHT22;30865;51.288;4.572;2023-03-23T16:25:37;17.70;58.50
45104;DHT22;30865;51.288;4.572;2023-03-23T16:28:03;17.80;58.40
45104;DHT22;30865;51.288;4.572;2023-03-23T16:30:32;17.70;59.10
45104;DHT22;30865;51.288;4.572;2023-03-23T16:32:58;17.60;59.00
45104;DHT22;30865;51.288;4.572;2023-03-23T16:35:24;17.60;59.10
45104;DHT22;30865;51.288;4.572;2023-03-23T16:37:52;17.60;58.80
45104;DHT22;30865;51.288;4.572;2023-03-23T16:40:18;17.60;59.10
45104;DHT22;30865;51.288;4.572;2023-03-23T16:42:45;17.60;59.00
45104;DHT22;30865;51.288;4.572;2023-03-23T16:45:12;17.50;59.20
45104;DHT22;30865;51.288;4.572;2023-03-23T16:47:37;17.50;59.20
45104;DHT22;30865;51.288;4.572;2023-03-23T16:50:04;17.50;59.50
45104;DHT22;30865;51.288;4.572;2023-03-23T16:52:31;17.50;59.50
45104;DHT22;30865;51.288;4.572;2023-03-23T16:54:57;17.50;60.00
45104;DHT22;30865;51.288;4.572;2023-03-23T16:57:23;17.40;60.40
45104;DHT22;30865;51.288;4.572;2023-03-23T16:59:49;17.40;61.00
45104;DHT22;30865;51.288;4.572;2023-03-23T17:02:14;17.40;60.70
45104;DHT22;30865;51.288;4.572;2023-03-23T17:04:44;17.30;61.10
45104;DHT22;30865;51.288;4.572;2023-03-23T17:07:11;17.30;61.00
45104;DHT22;30865;51.288;4.572;2023-03-23T17:09:37;17.30;61.30
45104;DHT22;30865;51.288;4.572;2023-03-23T17:12:05;17.20;61.60
45104;DHT22;30865;51.288;4.572;2023-03-23T17:14:31;17.20;62.00
45104;DHT22;30865;51.288;4.572;2023-03-23T17:16:57;17.20;62.20